Time;durP1;ratioP1;P1;durP2;ratioP2;P2;SDS_P1;SDS_P2;PMS_P1;PMS_P2;Temp;Humidity;BMP_temperature;BMP_pressure;BME280_temperature;BME280_humidity;BME280_pressure;Samples;Min_cycle;Max_cycle;Signal;HPM_P1;HPM_P2
2023/06/30 00:02:11;;;;;;;2.10;0.95;;;;;;;17.26;100.00;100326.69;5007615;28;20084;-71
2023/06/30 00:04:38;;;;;;;1.75;1.20;;;;;;;17.57;100.00;100396.56;5004787;28;20030;-71
2023/06/30 00:07:05;;;;;;;2.28;1.67;;;;;;;17.61;100.00;100403.53;5007234;28;20034;-71
2023/06/30 00:09:31;;;;;;;4.45;1.90;;;;;;;17.73;100.00;100419.94;5007635;28;20497;-71
2023/06/30 00:11:56;;;;;;;3.05;1.35;;;;;;;17.69;100.00;100425.38;5005507;28;20057;-71
2023/06/30 00:14:22;;;;;;;2.90;1.65;;;;;;;17.42;100.00;100355.41;5008191;28;20116;-71
2023/06/30 00:16:49;;;;;;;3.58;1.85;;;;;;;17.71;100.00;100407.63;5007334;28;20038;-71
2023/06/30 00:19:15;;;;;;;2.50;1.48;;;;;;;17.13;100.00;100309.38;5006445;28;20048;-72
2023/06/30 00:21:41;;;;;;;3.72;1.95;;;;;;;17.20;100.00;100315.38;5007413;28;20041;-72
2023/06/30 00:24:13;;;;;;;1.88;1.08;;;;;;;17.14;100.00;100315.56;5007378;28;20065;-72
2023/06/30 00:26:40;;;;;;;2.05;1.42;;;;;;;17.66;100.00;100412.22;5006692;28;20046;-72
2023/06/30 00:29:06;;;;;;;3.40;1.98;;;;;;;17.41;100.00;100389.03;5006260;28;20065;-73
2023/06/30 00:31:31;;;;;;;3.10;1.70;;;;;;;17.07;100.00;100330.78;5006886;28;20060;-71
2023/06/30 00:33:57;;;;;;;3.60;2.00;;;;;;;17.56;100.00;100414.28;5005299;28;20038;-72
2023/06/30 00:36:23;;;;;;;3.67;1.90;;;;;;;17.61;100.00;100425.63;5007000;28;20053;-72
2023/06/30 00:38:50;;;;;;;3.08;1.33;;;;;;;17.59;100.00;100415.97;5006767;28;20127;-71
2023/06/30 00:41:15;;;;;;;2.60;1.70;;;;;;;17.18;100.00;100343.72;5006859;28;20038;-72
2023/06/30 00:43:41;;;;;;;1.90;1.20;;;;;;;16.91;100.00;100311.78;5007801;28;20030;-71
2023/06/30 00:46:12;;;;;;;2.05;1.10;;;;;;;16.95;100.00;100310.81;5006512;28;20394;-71
2023/06/30 00:48:37;;;;;;;2.42;1.42;;;;;;;17.37;100.00;100387.41;5006910;28;20054;-71
2023/06/30 00:51:04;;;;;;;2.80;1.35;;;;;;;17.37;100.00;100408.63;5007023;28;20052;-71
2023/06/30 00:53:30;;;;;;;1.95;1.00;;;;;;;17.37;100.00;100415.69;5005359;28;20472;-71
2023/06/30 00:55:56;;;;;;;2.88;1.70;;;;;;;16.72;100.00;100289.34;5007409;28;20034;-71
2023/06/30 00:58:21;;;;;;;6.55;2.22;;;;;;;16.89;100.00;100337.47;5006441;28;20050;-72
2023/06/30 01:00:47;;;;;;;3.53;1.48;;;;;;;17.37;100.00;100407.72;5004675;28;20038;-72
2023/06/30 01:03:38;;;;;;;2.40;1.15;;;;;;;17.34;100.00;100395.44;5006520;28;20073;-73
2023/06/30 01:06:22;;;;;;;3.42;1.23;;;;;;;17.25;100.00;100383.28;5004037;28;20251;-73
2023/06/30 01:09:15;;;;;;;3.75;1.88;;;;;;;17.41;100.00;100404.09;5006521;28;20149;-73
2023/06/30 01:11:42;;;;;;;2.53;1.33;;;;;;;17.00;100.00;100334.53;5006841;28;20081;-73
2023/06/30 01:14:10;;;;;;;4.60;2.10;;;;;;;17.26;100.00;100389.47;5001858;28;20451;-73
2023/06/30 01:16:36;;;;;;;1.83;1.23;;;;;;;16.45;100.00;100282.06;5006968;28;20120;-73
2023/06/30 01:19:08;;;;;;;3.42;1.65;;;;;;;17.08;100.00;100389.06;5006938;28;20042;-73
2023/06/30 01:21:34;;;;;;;3.15;2.25;;;;;;;15.51;100.00;100127.41;5006526;28;20151;-73
2023/06/30 01:24:03;;;;;;;2.72;1.45;;;;;;;17.24;100.00;100388.66;5005071;28;20557;-71
2023/06/30 01:26:34;;;;;;;4.07;1.60;;;;;;;17.08;100.00;100374.94;5005174;28;20034;-70
2023/06/30 01:29:01;;;;;;;2.45;1.58;;;;;;;17.05;100.00;100393.59;5002749;28;20038;-72
2023/06/30 01:31:27;;;;;;;3.08;1.83;;;;;;;16.67;100.00;100340.66;5006762;28;20077;-72
2023/06/30 01:33:53;;;;;;;3.55;1.50;;;;;;;16.35;100.00;100295.59;5008507;28;20046;-72
2023/06/30 01:36:19;;;;;;;4.90;3.30;;;;;;;16.92;100.00;100387.72;5008026;28;20041;-72
2023/06/30 01:38:44;;;;;;;3.05;1.45;;;;;;;16.41;100.00;100296.31;5004230;28;20042;-72
2023/06/30 01:41:11;;;;;;;6.75;1.58;;;;;;;16.44;100.00;100311.25;5007796;28;20041;-72
2023/06/30 01:43:37;;;;;;;2.15;1.08;;;;;;;16.98;100.00;100395.53;5005570;28;20101;-72
2023/06/30 01:46:04;;;;;;;2.92;1.63;;;;;;;16.99;100.00;100389.31;5003363;28;20045;-73
2023/06/30 01:48:31;;;;;;;7.82;1.52;;;;;;;16.56;100.00;100321.53;5008286;28;20070;-73
2023/06/30 01:50:57;;;;;;;2.22;1.40;;;;;;;16.31;100.00;100293.94;5002444;28;20861;-73
2023/06/30 01:53:24;;;;;;;5.25;1.50;;;;;;;16.83;100.00;100399.47;5008696;28;20060;-73
2023/06/30 01:55:52;;;;;;;1.88;1.38;;;;;;;16.42;100.00;100318.38;5009648;28;20116;-73
2023/06/30 01:58:17;;;;;;;6.53;2.55;;;;;;;16.48;100.00;100310.25;5008120;28;20053;-73
2023/06/30 02:00:43;;;;;;;2.78;1.08;;;;;;;16.51;100.00;100311.97;5008326;28;20046;-72
2023/06/30 02:03:09;;;;;;;3.03;1.98;;;;;;;16.50;100.00;100303.13;5008090;28;20057;-73
2023/06/30 02:05:34;;;;;;;7.38;2.15;;;;;;;16.82;100.00;100376.50;5006755;28;20545;-73
2023/06/30 02:08:00;;;;;;;2.20;1.13;;;;;;;16.38;100.00;100303.44;5009174;28;20074;-73
2023/06/30 02:10:25;;;;;;;12.38;2.08;;;;;;;16.33;100.00;100298.28;5009316;28;20830;-73
2023/06/30 02:12:51;;;;;;;9.40;2.22;;;;;;;16.91;100.00;100393.09;5008522;28;20056;-73
2023/06/30 02:15:16;;;;;;;2.40;1.67;;;;;;;16.88;100.00;100405.50;5006975;28;20049;-73
2023/06/30 02:17:42;;;;;;;4.95;1.55;;;;;;;16.65;100.00;100341.63;5008903;28;20050;-74
2023/06/30 02:20:08;;;;;;;3.13;1.58;;;;;;;16.95;100.00;100408.88;5007558;28;20033;-74
2023/06/30 02:22:34;;;;;;;2.58;1.77;;;;;;;16.41;100.00;100319.25;5009805;28;20038;-74
2023/06/30 02:25:00;;;;;;;3.22;1.50;;;;;;;16.40;100.00;100307.81;5008529;28;20494;-74
2023/06/30 02:27:27;;;;;;;3.88;1.33;;;;;;;16.16;100.00;100288.13;5006025;28;20052;-74
2023/06/30 02:29:53;;;;;;;2.50;1.15;;;;;;;16.65;100.00;100384.88;5007874;28;20062;-74
2023/06/30 02:32:19;;;;;;;2.30;1.48;;;;;;;16.29;100.00;100317.78;5003456;28;20493;-73
2023/06/30 02:34:44;;;;;;;4.75;1.83;;;;;;;16.60;100.00;100392.06;5005957;28;20033;-73
2023/06/30 02:37:10;;;;;;;3.00;1.80;;;;;;;16.53;100.00;100369.28;5009050;28;20429;-73
2023/06/30 02:39:35;;;;;;;3.08;1.73;;;;;;;16.81;100.00;100403.94;5009103;28;20038;-73
2023/06/30 02:42:01;;;;;;;3.47;1.60;;;;;;;16.31;100.00;100325.69;5008601;28;20034;-73
2023/06/30 02:44:27;;;;;;;4.60;2.28;;;;;;;16.76;100.00;100408.41;5009301;28;20054;-73
2023/06/30 02:46:52;;;;;;;2.58;1.38;;;;;;;16.64;100.00;100406.97;5009406;28;20029;-73
2023/06/30 02:49:18;;;;;;;3.15;1.95;;;;;;;16.57;100.00;100409.81;5008737;28;20057;-73
2023/06/30 02:51:43;;;;;;;11.90;1.90;;;;;;;16.60;100.00;100409.72;5008791;28;20567;-73
2023/06/30 02:54:08;;;;;;;2.50;1.38;;;;;;;16.34;100.00;100360.94;5008657;28;20037;-73
2023/06/30 02:56:34;;;;;;;2.58;1.42;;;;;;;16.09;100.00;100315.66;5008662;28;20042;-73
2023/06/30 02:58:59;;;;;;;3.50;1.90;;;;;;;16.59;100.00;100408.84;5009085;28;20482;-74
2023/06/30 03:01:25;;;;;;;7.60;1.63;;;;;;;16.31;100.00;100352.19;5008173;28;20525;-74
2023/06/30 03:03:52;;;;;;;4.88;2.47;;;;;;;16.66;100.00;100412.22;5008505;28;20595;-75
2023/06/30 03:06:17;;;;;;;5.85;1.50;;;;;;;16.01;100.00;100323.78;5008725;28;20053;-74
2023/06/30 03:08:43;;;;;;;3.38;1.75;;;;;;;16.49;100.00;100407.34;5007128;28;20042;-74
2023/06/30 03:11:08;;;;;;;4.18;1.83;;;;;;;16.04;100.00;100336.06;5008732;28;20079;-74
2023/06/30 03:13:34;;;;;;;2.55;1.75;;;;;;;16.00;100.00;100329.09;5007657;28;20487;-74
2023/06/30 03:15:59;;;;;;;3.53;1.63;;;;;;;16.09;100.00;100335.97;5008097;28;20172;-74
2023/06/30 03:18:25;;;;;;;7.03;1.67;;;;;;;16.55;100.00;100423.09;5008206;28;20676;-73
2023/06/30 03:20:50;;;;;;;5.35;3.80;;;;;;;16.36;100.00;100398.81;5008573;28;20131;-74
2023/06/30 03:23:18;;;;;;;4.45;1.70;;;;;;;16.00;100.00;100347.63;5008346;28;20120;-74
2023/06/30 03:25:43;;;;;;;3.58;2.10;;;;;;;16.06;100.00;100368.66;5008701;28;20025;-73
2023/06/30 03:28:09;;;;;;;2.88;1.98;;;;;;;16.38;100.00;100414.69;5006904;28;20100;-73
2023/06/30 03:30:34;;;;;;;5.15;2.00;;;;;;;16.43;100.00;100402.19;5007303;28;20061;-74
2023/06/30 03:33:00;;;;;;;3.00;2.05;;;;;;;16.04;100.00;100330.78;5008912;28;20050;-74
2023/06/30 03:35:25;;;;;;;2.22;1.67;;;;;;;16.41;100.00;100399.59;5006173;28;20756;-73
2023/06/30 03:37:50;;;;;;;2.55;1.48;;;;;;;16.42;100.00;100393.38;5008689;28;20469;-73
2023/06/30 03:40:16;;;;;;;2.45;1.58;;;;;;;16.16;100.00;100354.31;5007840;28;20563;-73
2023/06/30 03:42:41;;;;;;;5.15;1.92;;;;;;;16.57;100.00;100431.00;5006752;28;20048;-73
2023/06/30 03:45:08;;;;;;;5.35;2.80;;;;;;;15.81;100.00;100302.19;5007098;28;20068;-73
2023/06/30 03:47:33;;;;;;;4.28;2.58;;;;;;;16.62;100.00;100421.16;5006263;28;20050;-73
2023/06/30 03:49:58;;;;;;;5.18;1.75;;;;;;;16.09;100.00;100328.88;5008915;28;20088;-73
2023/06/30 03:52:24;;;;;;;3.40;2.00;;;;;;;15.37;100.00;100222.94;5006718;28;20076;-73
2023/06/30 03:54:50;;;;;;;10.77;2.28;;;;;;;16.49;100.00;100387.94;5006813;28;20462;-73
2023/06/30 03:57:16;;;;;;;4.15;2.13;;;;;;;16.16;100.00;100326.97;5039428;28;20669;-74
2023/06/30 03:59:41;;;;;;;2.63;2.00;;;;;;;16.39;100.00;100355.53;5005084;28;20108;-74
2023/06/30 04:02:07;;;;;;;5.57;1.90;;;;;;;16.25;100.00;100313.50;5007172;28;20052;-74
2023/06/30 04:04:32;;;;;;;5.68;2.20;;;;;;;16.71;100.00;100386.47;5006425;28;20080;-74
2023/06/30 04:06:58;;;;;;;3.28;1.70;;;;;;;16.77;100.00;100398.72;5007294;28;20045;-73
2023/06/30 04:09:23;;;;;;;4.45;2.55;;;;;;;16.92;100.00;100426.63;5003724;28;20057;-74
2023/06/30 04:11:48;;;;;;;3.15;1.77;;;;;;;17.05;100.00;100422.75;5002963;28;20060;-74
2023/06/30 04:14:14;;;;;;;3.00;1.85;;;;;;;17.04;100.00;100410.38;5006914;28;20033;-73
2023/06/30 04:16:40;;;;;;;3.60;2.00;;;;;;;16.62;100.00;100331.97;5008319;28;20498;-74
2023/06/30 04:19:05;;;;;;;2.92;2.00;;;;;;;16.85;100.00;100365.81;5005773;28;20552;-75
2023/06/30 04:21:31;;;;;;;4.88;2.13;;;;;;;17.30;100.00;100414.97;5007009;28;20038;-74
2023/06/30 04:23:56;;;;;;;3.25;2.00;;;;;;;17.12;100.00;100370.44;5007362;28;20180;-74
2023/06/30 04:26:22;;;;;;;3.47;2.08;;;;;;;17.33;100.00;100401.66;5006719;28;20482;-73
2023/06/30 04:28:48;;;;;;;2.67;1.73;;;;;;;17.01;100.00;100345.06;5005699;28;20076;-73
2023/06/30 04:31:13;;;;;;;5.05;1.92;;;;;;;16.92;100.00;100313.50;5004682;28;20045;-73
2023/06/30 04:33:38;;;;;;;2.83;2.40;;;;;;;17.44;100.00;100393.38;5007054;28;20119;-74
2023/06/30 04:36:07;;;;;;;3.53;1.85;;;;;;;17.36;100.00;100395.41;5007047;28;20056;-74
2023/06/30 04:38:35;;;;;;;9.45;2.60;;;;;;;17.63;100.00;100399.03;5006762;28;20088;-73
2023/06/30 04:41:01;;;;;;;6.82;2.10;;;;;;;17.80;100.00;100423.28;5006871;28;20025;-73
2023/06/30 04:43:26;;;;;;;4.15;2.13;;;;;;;17.80;100.00;100398.53;5007203;28;20690;-73
2023/06/30 04:45:52;;;;;;;4.85;2.30;;;;;;;18.12;100.00;100426.78;5006724;28;20045;-74
2023/06/30 04:48:17;;;;;;;3.20;1.73;;;;;;;17.78;100.00;100352.59;5006723;28;20034;-73
2023/06/30 04:50:43;;;;;;;3.78;1.98;;;;;;;18.37;100.00;100434.00;5006883;28;20056;-73
2023/06/30 04:53:09;;;;;;;3.95;2.05;;;;;;;17.82;100.00;100347.19;5006494;28;20070;-73
2023/06/30 04:55:34;;;;;;;3.15;1.67;;;;;;;17.94;100.00;100337.97;5007023;28;20604;-73
2023/06/30 04:58:00;;;;;;;6.25;2.35;;;;;;;18.64;100.00;100432.25;5006214;28;20140;-73
2023/06/30 05:00:26;;;;;;;2.67;1.42;;;;;;;18.66;100.00;100444.56;5005955;28;20756;-72
2023/06/30 05:02:53;;;;;;;3.67;1.92;;;;;;;18.19;100.00;100339.81;5005108;28;20042;-73
2023/06/30 05:05:18;;;;;;;2.92;1.40;;;;;;;19.11;100.00;100441.28;5005124;28;20085;-73
2023/06/30 05:07:45;;;;;;;3.50;1.80;;;;;;;19.58;100.00;100437.84;5007149;28;20551;-73
2023/06/30 05:10:11;;;;;;;1.80;1.27;;;;;;;19.77;100.00;100424.75;5006205;28;20057;-73
2023/06/30 05:12:37;;;;;;;4.57;1.83;;;;;;;20.20;100.00;100423.06;5004731;28;20120;-73
2023/06/30 05:15:03;;;;;;;3.80;2.10;;;;;;;20.79;100.00;100442.91;5006659;28;20060;-73
2023/06/30 05:17:28;;;;;;;3.63;1.63;;;;;;;21.32;100.00;100457.56;5006776;28;20048;-73
2023/06/30 05:19:54;;;;;;;2.95;1.73;;;;;;;20.65;100.00;100417.72;5006899;28;20033;-73
2023/06/30 05:22:19;;;;;;;4.30;1.92;;;;;;;21.44;100.00;100383.16;5004457;28;20449;-73
2023/06/30 05:24:44;;;;;;;4.07;2.00;;;;;;;21.98;100.00;100398.50;5002127;28;20092;-74
2023/06/30 05:27:10;;;;;;;3.15;1.75;;;;;;;22.68;100.00;100466.44;5001348;28;20584;-74
2023/06/30 05:29:35;;;;;;;6.03;2.90;;;;;;;23.06;100.00;100469.03;5005874;28;20046;-74
2023/06/30 05:32:01;;;;;;;2.58;1.52;;;;;;;23.12;100.00;100471.41;5002753;28;20041;-73
2023/06/30 05:34:28;;;;;;;4.65;2.42;;;;;;;23.56;100.00;100474.44;4996633;28;20042;-73
2023/06/30 05:36:55;;;;;;;2.67;1.45;;;;;;;23.55;100.00;100470.03;5004806;28;20044;-74
2023/06/30 05:39:21;;;;;;;4.63;2.25;;;;;;;23.37;100.00;100374.59;5006016;28;20050;-74
2023/06/30 05:41:47;;;;;;;2.30;1.50;;;;;;;24.00;92.51;100431.00;5006117;28;20038;-73
2023/06/30 05:44:12;;;;;;;3.10;2.03;;;;;;;24.08;90.84;100411.78;5000542;28;20034;-74
2023/06/30 05:46:38;;;;;;;4.63;2.00;;;;;;;24.32;94.85;100449.75;5002361;28;20041;-68
2023/06/30 05:49:05;;;;;;;2.17;1.52;;;;;;;24.49;85.52;100474.78;4999625;28;20053;-68
2023/06/30 05:51:35;;;;;;;1.63;1.08;;;;;;;24.50;86.20;100450.56;5003450;28;20682;-69
2023/06/30 05:54:04;;;;;;;4.57;2.17;;;;;;;24.89;88.73;100467.09;5009277;28;20508;-67
2023/06/30 05:56:30;;;;;;;2.45;1.48;;;;;;;24.76;84.85;100435.63;5005092;28;20054;-70
2023/06/30 05:58:56;;;;;;;3.40;2.13;;;;;;;25.15;82.11;100458.38;5004596;28;20026;-70
2023/06/30 06:01:21;;;;;;;5.05;1.60;;;;;;;24.73;79.45;100389.34;5003087;28;20877;-71
2023/06/30 06:03:48;;;;;;;2.47;1.50;;;;;;;25.01;74.78;100464.59;5003342;28;20042;-70
2023/06/30 06:06:13;;;;;;;5.05;2.17;;;;;;;25.14;81.22;100447.72;5003952;28;20320;-70
2023/06/30 06:08:40;;;;;;;8.95;1.50;;;;;;;25.08;81.23;100395.28;5005495;28;20057;-70
2023/06/30 06:11:05;;;;;;;2.95;1.90;;;;;;;25.16;86.19;100424.34;5005600;28;20026;-70
2023/06/30 06:13:34;;;;;;;2.20;1.10;;;;;;;24.99;84.65;100390.47;5006377;28;20546;-70
2023/06/30 06:16:01;;;;;;;4.25;1.80;;;;;;;25.30;74.15;100451.25;5004259;28;20528;-70
2023/06/30 06:18:26;;;;;;;1.98;1.35;;;;;;;25.19;84.98;100379.41;5001215;28;20132;-70
2023/06/30 06:20:52;;;;;;;2.67;1.60;;;;;;;25.19;77.33;100464.47;5007053;28;20117;-72
2023/06/30 06:23:18;;;;;;;2.50;1.25;;;;;;;24.57;85.23;100384.88;5009098;28;20061;-71
2023/06/30 06:25:43;;;;;;;2.05;1.40;;;;;;;24.77;80.33;100385.50;5009069;28;20477;-71
2023/06/30 06:28:09;;;;;;;3.25;1.95;;;;;;;25.14;72.25;100458.47;5003795;28;23598;-72
2023/06/30 06:30:34;;;;;;;2.25;1.70;;;;;;;24.35;71.75;100400.44;5006117;28;20073;-72
2023/06/30 06:32:59;;;;;;;1.92;1.20;;;;;;;24.93;81.34;100412.28;5003289;28;20073;-71
2023/06/30 06:35:25;;;;;;;2.63;1.60;;;;;;;25.34;74.18;100451.94;5006068;28;20076;-72
2023/06/30 06:37:50;;;;;;;2.25;1.00;;;;;;;25.10;79.25;100385.31;5009152;28;20401;-71
2023/06/30 06:40:16;;;;;;;4.47;2.22;;;;;;;25.15;71.55;100374.28;5008866;28;20049;-71
2023/06/30 06:42:41;;;;;;;1.95;1.05;;;;;;;25.64;67.62;100439.28;5016064;28;20045;-71
2023/06/30 06:45:07;;;;;;;0.65;0.60;;;;;;;25.69;65.27;100428.25;5008220;28;20038;-71
2023/06/30 06:48:10;;;;;;;1.80;0.85;;;;;;;24.64;78.13;100456.00;5008062;28;20058;-71
2023/06/30 06:50:35;;;;;;;0.93;0.57;;;;;;;24.64;76.66;100447.09;5008402;28;20053;-70
2023/06/30 06:53:01;;;;;;;1.85;1.20;;;;;;;24.07;76.55;100385.06;5006168;28;20480;-71
2023/06/30 06:55:26;;;;;;;2.28;0.82;;;;;;;24.55;70.69;100377.88;5009120;28;20041;-71
2023/06/30 06:57:53;;;;;;;2.47;1.42;;;;;;;24.55;77.18;100455.66;5008117;28;20085;-71
2023/06/30 07:00:19;;;;;;;1.30;0.80;;;;;;;24.73;72.99;100392.03;5008310;28;20053;-71
2023/06/30 07:02:44;;;;;;;1.35;0.98;;;;;;;25.57;68.72;100450.53;5008338;28;20033;-71
2023/06/30 07:05:11;;;;;;;1.95;1.02;;;;;;;24.26;74.51;100374.19;5008079;28;20037;-71
2023/06/30 07:07:36;;;;;;;1.75;1.17;;;;;;;25.21;67.56;100374.78;5008629;28;20038;-71
2023/06/30 07:10:02;;;;;;;1.15;0.77;;;;;;;25.77;69.52;100449.28;5008177;28;20040;-71
2023/06/30 07:12:28;;;;;;;2.03;1.00;;;;;;;25.24;65.98;100357.63;5006616;28;20069;-71
2023/06/30 07:14:53;;;;;;;2.35;1.25;;;;;;;25.12;68.66;100366.38;5007625;28;20417;-71
2023/06/30 07:17:19;;;;;;;2.22;1.08;;;;;;;25.90;62.79;100435.00;5007689;28;20030;-71
2023/06/30 07:19:44;;;;;;;1.70;1.13;;;;;;;24.97;55.52;100363.69;5008250;28;20545;-71
2023/06/30 07:22:10;;;;;;;0.75;0.55;;;;;;;24.64;59.70;100345.97;5007823;28;20046;-71
2023/06/30 07:24:35;;;;;;;0.95;0.60;;;;;;;25.47;60.00;100428.72;5007220;28;20861;-71
2023/06/30 07:27:01;;;;;;;1.63;0.85;;;;;;;25.47;60.00;100366.91;5003972;28;20376;-71
2023/06/30 07:29:26;;;;;;;2.38;0.73;;;;;;;25.85;61.00;100429.00;5007833;28;20041;-71
2023/06/30 07:31:52;;;;;;;2.03;0.55;;;;;;;25.79;54.84;100450.91;5007225;28;20104;-71
2023/06/30 07:34:19;;;;;;;1.35;0.57;;;;;;;25.30;54.22;100375.19;5002866;28;20489;-71
2023/06/30 07:36:47;;;;;;;3.05;1.65;;;;;;;25.56;53.05;100360.09;5007246;28;20033;-72
2023/06/30 07:39:13;;;;;;;1.67;0.73;;;;;;;26.08;57.93;100448.22;5007106;28;20128;-72
2023/06/30 07:41:39;;;;;;;1.73;1.17;;;;;;;25.71;54.88;100386.03;5007623;28;20112;-71
2023/06/30 07:44:04;;;;;;;0.90;0.43;;;;;;;25.85;54.52;100366.31;5007560;28;20040;-71
2023/06/30 07:46:30;;;;;;;0.90;0.50;;;;;;;26.25;52.13;100457.91;5006790;28;20052;-71
2023/06/30 07:48:56;;;;;;;1.73;1.17;;;;;;;26.03;51.13;100453.03;5005787;28;20046;-72
2023/06/30 07:51:22;;;;;;;5.55;0.50;;;;;;;26.01;50.68;100404.75;5000495;28;20053;-72
2023/06/30 07:53:47;;;;;;;1.25;0.80;;;;;;;26.23;52.94;100441.00;5002533;28;20042;-68
2023/06/30 07:56:13;;;;;;;1.50;1.00;;;;;;;26.19;51.58;100374.91;5001030;28;20127;-69
2023/06/30 07:58:38;;;;;;;1.02;0.60;;;;;;;26.84;53.00;100439.66;5001289;28;20037;-69
2023/06/30 08:01:04;;;;;;;2.22;1.23;;;;;;;26.74;54.34;100434.03;5005467;28;20160;-70
2023/06/30 08:03:29;;;;;;;1.88;1.10;;;;;;;26.96;56.28;100429.88;5003233;28;20045;-76
2023/06/30 08:05:56;;;;;;;2.83;1.77;;;;;;;27.10;57.75;100424.41;5003167;28;20053;-77
2023/06/30 08:08:22;;;;;;;1.75;1.25;;;;;;;26.53;61.54;100395.91;5003809;28;20177;-77
2023/06/30 08:10:47;;;;;;;4.63;1.13;;;;;;;26.68;73.58;100423.66;5000150;28;20054;-76
2023/06/30 08:13:13;;;;;;;3.47;1.52;;;;;;;26.73;58.57;100346.13;4999484;28;20049;-74
2023/06/30 08:15:38;;;;;;;6.40;4.20;;;;;;;26.57;63.08;100331.13;5005179;28;20501;-75
2023/06/30 08:18:04;;;;;;;11.73;7.25;;;;;;;27.19;66.92;100419.34;5004081;28;20050;-74
2023/06/30 08:20:29;;;;;;;13.32;8.43;;;;;;;27.27;60.83;100425.09;5005708;28;20467;-74
2023/06/30 08:22:55;;;;;;;14.00;8.88;;;;;;;26.33;63.12;100311.13;5007163;28;20042;-74
2023/06/30 08:25:24;;;;;;;2.83;1.40;;;;;;;27.31;61.09;100422.06;5005908;28;20053;-73
2023/06/30 08:27:51;;;;;;;67.78;35.45;;;;;;;26.60;81.96;100382.94;5003908;28;20108;-74
2023/06/30 08:30:17;;;;;;;12.07;8.40;;;;;;;26.70;57.73;100359.81;5006350;28;20038;-73
2023/06/30 08:32:43;;;;;;;17.38;10.55;;;;;;;26.86;58.65;100354.25;5004752;28;20382;-73
2023/06/30 08:35:08;;;;;;;42.78;28.17;;;;;;;27.04;62.88;100324.28;5003150;28;20026;-74
2023/06/30 08:37:34;;;;;;;4.13;2.97;;;;;;;26.67;56.48;100313.41;5007011;28;20033;-73
2023/06/30 08:40:03;;;;;;;16.38;7.80;;;;;;;27.03;60.93;100368.38;5005713;28;20070;-73
2023/06/30 08:42:31;;;;;;;101.13;57.63;;;;;;;27.07;75.80;100319.56;5005535;28;20042;-74
2023/06/30 08:44:59;;;;;;;85.80;51.38;;;;;;;27.28;64.55;100402.59;5005628;28;20042;-74
2023/06/30 08:47:27;;;;;;;14.50;9.68;;;;;;;27.78;53.51;100387.31;5006458;28;20107;-74
2023/06/30 08:49:54;;;;;;;121.35;76.57;;;;;;;27.78;68.70;100400.81;5003955;28;20061;-73
2023/06/30 08:52:21;;;;;;;33.35;23.25;;;;;;;28.09;55.16;100388.66;5003959;28;20053;-73
2023/06/30 08:54:46;;;;;;;4.85;2.65;;;;;;;27.71;49.51;100337.50;5006381;28;20104;-73
2023/06/30 08:57:15;;;;;;;64.45;39.00;;;;;;;27.45;53.70;100325.91;5006799;28;20049;-73
2023/06/30 08:59:44;;;;;;;5.85;3.75;;;;;;;28.05;48.94;100311.66;5006083;28;20042;-74
2023/06/30 09:02:11;;;;;;;100.15;63.75;;;;;;;28.48;52.62;100346.22;5006161;28;20026;-73
2023/06/30 09:04:38;;;;;;;7.90;4.82;;;;;;;28.48;48.22;100393.94;5006467;28;20084;-73
2023/06/30 09:07:06;;;;;;;222.98;138.23;;;;;;;27.85;65.16;100344.63;5006451;28;20059;-74
2023/06/30 09:09:39;;;;;;;7.22;6.63;;;;;;;27.33;46.01;100363.56;5006288;28;20062;-73
2023/06/30 09:12:06;;;;;;;17.23;11.77;;;;;;;27.64;45.53;100330.84;5005396;28;20116;-73
2023/06/30 09:14:34;;;;;;;13.02;6.38;;;;;;;28.40;48.63;100308.97;5005229;28;20053;-72
2023/06/30 09:17:00;;;;;;;7.90;4.18;;;;;;;28.86;46.27;100334.28;5006460;28;20030;-72
2023/06/30 09:19:26;;;;;;;69.63;40.58;;;;;;;29.25;48.65;100361.91;5006153;28;20136;-75
2023/06/30 09:21:52;;;;;;;35.03;18.33;;;;;;;29.52;47.18;100379.59;5006430;28;20133;-73
2023/06/30 09:24:18;;;;;;;49.00;24.52;;;;;;;29.49;50.02;100380.72;5005612;28;20494;-73
2023/06/30 09:26:44;;;;;;;3.85;3.38;;;;;;;29.35;44.02;100386.34;5003966;28;20060;-73
2023/06/30 09:29:12;;;;;;;3.33;2.40;;;;;;;29.41;46.60;100321.00;5006371;28;20026;-73
2023/06/30 09:31:39;;;;;;;38.40;18.00;;;;;;;30.15;45.12;100369.94;5002932;28;20406;-73
2023/06/30 09:34:12;;;;;;;5.80;3.83;;;;;;;30.13;45.01;100308.81;5004767;28;20053;-73
2023/06/30 09:36:58;;;;;;;74.18;39.03;;;;;;;30.57;43.85;100386.34;5001823;28;20046;-73
2023/06/30 09:39:24;;;;;;;12.52;10.45;;;;;;;28.81;43.55;100301.38;5004739;28;20528;-73
2023/06/30 09:41:51;;;;;;;18.52;9.95;;;;;;;28.83;45.19;100385.84;5004340;28;20049;-73
2023/06/30 09:44:20;;;;;;;3.90;2.83;;;;;;;29.65;41.94;100364.97;5004197;28;20072;-73
2023/06/30 09:46:52;;;;;;;4.07;2.67;;;;;;;29.68;42.17;100355.78;5004613;28;20030;-72
2023/06/30 09:49:32;;;;;;;2.90;1.73;;;;;;;29.93;45.22;100368.16;5003153;28;20046;-72
2023/06/30 09:52:01;;;;;;;34.03;23.75;;;;;;;30.23;42.25;100337.72;5006715;28;20054;-74
2023/06/30 09:54:31;;;;;;;3.65;2.78;;;;;;;30.07;40.97;100281.28;5008849;28;20046;-74
2023/06/30 09:57:00;;;;;;;2.80;2.10;;;;;;;30.05;38.35;100291.38;5009917;28;20046;-74
2023/06/30 09:59:26;;;;;;;2.20;1.67;;;;;;;29.72;38.78;100332.91;5010644;28;20132;-73
2023/06/30 10:01:56;;;;;;;3.20;1.92;;;;;;;29.37;39.29;100222.19;5007844;28;20577;-73
2023/06/30 10:04:22;;;;;;;34.00;22.65;;;;;;;29.71;42.99;100314.94;5006610;28;20053;-74
2023/06/30 10:06:50;;;;;;;2.38;1.02;;;;;;;29.75;39.27;100340.75;5006247;28;20050;-74
2023/06/30 10:09:19;;;;;;;7.03;4.03;;;;;;;30.38;39.61;100303.09;5010087;28;20084;-74
2023/06/30 10:11:50;;;;;;;11.18;6.50;;;;;;;30.35;38.24;100335.84;5021479;28;20050;-72
2023/06/30 10:14:18;;;;;;;1.35;0.80;;;;;;;29.54;37.16;100264.06;5009645;28;20530;-73
2023/06/30 10:16:47;;;;;;;1.42;0.70;;;;;;;29.48;36.22;100265.44;5010078;28;20029;-74
2023/06/30 10:19:14;;;;;;;2.92;1.67;;;;;;;28.52;41.24;100258.59;5008839;28;20042;-75
2023/06/30 10:21:40;;;;;;;10.00;7.45;;;;;;;29.20;40.98;100200.09;5009725;28;20123;-74
2023/06/30 10:24:07;;;;;;;9.88;5.70;;;;;;;30.96;40.51;100326.19;5009651;28;20764;-75
2023/06/30 10:26:36;;;;;;;3.47;2.42;;;;;;;31.51;38.09;100261.66;5009261;28;20045;-74
2023/06/30 10:29:02;;;;;;;5.97;3.88;;;;;;;30.99;38.75;100256.31;5007421;28;20097;-74
2023/06/30 10:31:28;;;;;;;1.23;0.95;;;;;;;30.79;37.71;100309.53;5006027;28;20049;-74
2023/06/30 10:33:54;;;;;;;4.15;2.20;;;;;;;30.43;37.22;100308.09;5007407;28;20351;-75
2023/06/30 10:36:20;;;;;;;6.95;3.38;;;;;;;30.61;38.57;100278.59;5009038;28;20056;-74
2023/06/30 10:38:46;;;;;;;3.45;2.03;;;;;;;30.83;38.37;100274.88;5009074;28;20037;-75
2023/06/30 10:41:18;;;;;;;16.38;9.30;;;;;;;31.16;39.00;100321.72;5009407;28;20029;-75
2023/06/30 10:44:01;;;;;;;5.15;2.97;;;;;;;29.72;43.17;100313.97;5008757;28;20116;-74
2023/06/30 10:46:49;;;;;;;5.15;4.57;;;;;;;30.65;39.59;100270.06;5007467;28;20034;-74
2023/06/30 10:49:30;;;;;;;8.55;5.30;;;;;;;31.74;38.85;100301.13;5007808;28;20417;-73
2023/06/30 10:51:57;;;;;;;1.45;0.80;;;;;;;30.62;38.75;100310.09;5002304;28;20053;-74
2023/06/30 10:54:31;;;;;;;3.95;1.83;;;;;;;30.73;40.06;100310.03;5008671;28;20053;-74
2023/06/30 10:57:04;;;;;;;3.80;2.15;;;;;;;31.16;37.93;100232.25;5009300;28;20049;-73
2023/06/30 10:59:39;;;;;;;2.58;1.20;;;;;;;30.22;37.56;100224.13;5008213;28;20060;-74
2023/06/30 11:02:17;;;;;;;10.90;8.23;;;;;;;31.13;40.10;100302.03;5000272;28;20058;-73
2023/06/30 11:04:46;;;;;;;2.83;1.35;;;;;;;31.67;37.78;100263.84;5008265;28;20029;-73
2023/06/30 11:07:29;;;;;;;10.35;7.05;;;;;;;31.89;38.54;100298.00;5008768;28;20045;-74
2023/06/30 11:09:59;;;;;;;9.50;5.03;;;;;;;30.70;38.32;100267.81;5006773;28;20042;-75
2023/06/30 11:12:27;;;;;;;2.13;1.58;;;;;;;30.60;39.57;100302.13;4999821;28;20058;-73
2023/06/30 11:15:00;;;;;;;17.88;15.27;;;;;;;29.96;43.26;100212.81;4998711;28;20147;-72
2023/06/30 11:17:27;;;;;;;5.32;3.95;;;;;;;31.00;40.54;100265.28;5002755;28;20052;-73
2023/06/30 11:20:01;;;;;;;21.95;13.52;;;;;;;29.62;45.78;100281.38;5002656;28;20484;-74